Time;durP1;ratioP1;P1;durP2;ratioP2;P2;SDS_P1;SDS_P2;PMS_P1;PMS_P2;Temp;Humidity;BMP_temperature;BMP_pressure;BME280_temperature;BME280_humidity;BME280_pressure;Samples;Min_cycle;Max_cycle;Signal;HPM_P1;HPM_P2
2021/12/02 00:01:17;;;;;;;6.43;1.25;;;3.30;99.90;;;;;;5022681;28;20423;-77
2021/12/02 00:03:44;;;;;;;5.22;1.10;;;3.20;99.90;;;;;;5027979;28;20094;-78
2021/12/02 00:06:14;;;;;;;5.20;1.23;;;3.20;99.90;;;;;;5024862;28;20068;-78
2021/12/02 00:08:40;;;;;;;9.48;1.55;;;3.20;99.90;;;;;;5020193;28;20018;-78
2021/12/02 00:11:06;;;;;;;5.45;1.83;;;3.20;99.90;;;;;;5014913;28;20022;-76
2021/12/02 00:14:09;;;;;;;11.18;1.23;;;3.10;99.90;;;;;;5024994;28;20502;-78
2021/12/02 00:21:45;;;;;;;3.97;1.20;;;3.20;99.90;;;;;;5015461;28;20033;-76
2021/12/02 00:24:14;;;;;;;7.93;1.50;;;3.10;99.90;;;;;;4999632;28;20025;-76
2021/12/02 00:26:40;;;;;;;7.03;1.05;;;3.10;99.90;;;;;;5020339;28;20111;-76
2021/12/02 00:29:08;;;;;;;5.68;0.95;;;3.20;99.90;;;;;;4995146;28;20029;-77
2021/12/02 00:31:37;;;;;;;8.32;1.02;;;3.20;99.90;;;;;;5027163;28;20029;-77
2021/12/02 00:34:07;;;;;;;6.75;1.10;;;3.20;99.90;;;;;;5022544;28;20096;-76
2021/12/02 00:36:34;;;;;;;13.60;1.20;;;3.20;99.90;;;;;;5003315;28;20040;-77
2021/12/02 00:39:13;;;;;;;5.40;1.30;;;3.20;99.90;;;;;;5024184;28;20032;-77
2021/12/02 00:41:39;;;;;;;7.40;1.55;;;3.20;99.90;;;;;;5014075;28;20030;-76
2021/12/02 00:44:05;;;;;;;9.65;1.27;;;3.20;99.90;;;;;;5024647;28;20546;-76
2021/12/02 00:46:32;;;;;;;6.72;1.23;;;3.20;99.90;;;;;;5024798;28;20037;-77
2021/12/02 00:49:02;;;;;;;9.57;1.48;;;3.20;99.90;;;;;;5023318;28;20030;-76
2021/12/02 00:51:29;;;;;;;4.00;0.77;;;3.20;99.90;;;;;;5024668;28;20021;-77
2021/12/02 00:53:59;;;;;;;9.43;1.38;;;3.20;99.90;;;;;;5006366;28;20022;-77
2021/12/02 00:56:25;;;;;;;10.98;1.48;;;3.10;99.90;;;;;;5010163;28;20029;-76
2021/12/02 00:58:53;;;;;;;6.55;1.00;;;3.10;99.90;;;;;;5017870;28;20565;-76
2021/12/02 01:01:21;;;;;;;10.57;1.10;;;3.10;99.90;;;;;;5020633;28;20026;-76
2021/12/02 01:03:49;;;;;;;4.72;0.98;;;3.20;99.90;;;;;;5019614;28;20030;-76
2021/12/02 01:06:15;;;;;;;5.35;0.90;;;3.20;99.90;;;;;;5018614;28;20420;-77
2021/12/02 01:08:41;;;;;;;9.10;1.50;;;3.10;99.90;;;;;;5005799;28;20072;-76
2021/12/02 01:11:09;;;;;;;8.65;1.25;;;3.10;99.90;;;;;;5024011;28;20080;-77
2021/12/02 01:13:35;;;;;;;4.88;0.80;;;3.20;99.90;;;;;;5024462;28;20121;-76
2021/12/02 01:16:01;;;;;;;5.78;1.10;;;3.20;99.90;;;;;;5026813;28;20575;-75
2021/12/02 01:18:27;;;;;;;7.72;0.95;;;3.20;99.90;;;;;;5024633;28;20036;-76
2021/12/02 01:20:54;;;;;;;7.10;0.90;;;3.20;99.90;;;;;;5025706;28;20034;-77
2021/12/02 01:23:21;;;;;;;6.47;0.80;;;3.20;99.90;;;;;;5018970;28;20021;-76
2021/12/02 01:25:53;;;;;;;6.78;0.88;;;3.20;99.90;;;;;;5024087;28;20029;-76
2021/12/02 01:28:21;;;;;;;6.43;1.42;;;3.20;99.90;;;;;;5018119;28;20029;-77
2021/12/02 01:30:49;;;;;;;5.07;1.00;;;3.20;99.90;;;;;;5018105;28;20029;-77
2021/12/02 01:33:16;;;;;;;5.70;1.00;;;3.20;99.90;;;;;;5031886;28;20054;-77
2021/12/02 01:35:48;;;;;;;7.50;1.33;;;3.10;99.90;;;;;;5009940;28;20544;-75
2021/12/02 01:38:15;;;;;;;6.55;1.73;;;3.10;99.90;;;;;;5014152;28;20038;-76
2021/12/02 01:40:42;;;;;;;3.40;0.90;;;3.10;99.90;;;;;;5020065;28;20109;-76
2021/12/02 01:43:14;;;;;;;5.32;1.17;;;3.10;99.90;;;;;;5011999;28;20025;-78
2021/12/02 01:45:40;;;;;;;6.13;1.48;;;3.10;99.90;;;;;;4995495;28;20496;-76
2021/12/02 01:48:09;;;;;;;4.30;1.00;;;3.10;99.90;;;;;;5017227;28;20041;-79
2021/12/02 01:50:39;;;;;;;4.32;1.25;;;3.10;99.90;;;;;;5020168;28;20026;-78
2021/12/02 01:53:05;;;;;;;5.45;0.90;;;3.10;99.90;;;;;;5028256;28;20048;-78
2021/12/02 01:55:34;;;;;;;8.35;1.35;;;3.10;99.90;;;;;;5026784;28;20042;-78
2021/12/02 01:58:04;;;;;;;6.63;0.70;;;3.00;99.90;;;;;;5024871;28;20030;-77
2021/12/02 02:00:43;;;;;;;7.90;1.40;;;3.00;99.90;;;;;;5024082;28;20028;-76
2021/12/02 02:03:12;;;;;;;5.25;1.13;;;3.00;99.90;;;;;;5022116;28;20507;-76
2021/12/02 02:05:38;;;;;;;6.57;1.20;;;3.00;99.90;;;;;;5005252;28;20057;-77
2021/12/02 02:08:16;;;;;;;3.67;0.90;;;3.00;99.90;;;;;;5010265;28;20026;-78
2021/12/02 02:10:44;;;;;;;5.97;0.73;;;2.90;99.90;;;;;;5021357;28;20026;-77
2021/12/02 02:13:13;;;;;;;5.40;0.77;;;2.90;99.90;;;;;;5005943;28;20033;-77
2021/12/02 02:15:48;;;;;;;2.97;0.80;;;2.90;99.90;;;;;;5025803;28;20033;-77
2021/12/02 02:18:24;;;;;;;3.90;0.82;;;2.90;99.90;;;;;;5020244;28;20152;-78
2021/12/02 02:23:28;;;;;;;4.60;0.85;;;2.90;99.90;;;;;;5029300;28;20048;-78
2021/12/02 02:25:54;;;;;;;3.40;0.60;;;2.90;99.90;;;;;;5024337;28;20030;-78
2021/12/02 02:28:20;;;;;;;6.85;0.88;;;2.90;99.90;;;;;;5019185;28;20429;-77
2021/12/02 02:30:46;;;;;;;2.28;0.70;;;2.80;99.90;;;;;;5022332;28;20064;-76
2021/12/02 02:33:13;;;;;;;6.32;1.48;;;2.80;99.90;;;;;;5014712;28;20026;-77
2021/12/02 02:35:40;;;;;;;4.70;0.80;;;2.80;99.90;;;;;;5022627;28;20108;-76
2021/12/02 02:38:05;;;;;;;4.57;0.60;;;2.80;99.90;;;;;;5025216;28;20084;-78
2021/12/02 02:40:32;;;;;;;4.75;1.17;;;2.80;99.90;;;;;;5023786;28;20483;-78
2021/12/02 02:43:05;;;;;;;2.15;0.85;;;2.80;99.90;;;;;;5024984;28;20443;-77
2021/12/02 02:45:31;;;;;;;5.63;0.65;;;2.80;99.90;;;;;;5028979;28;20038;-78
2021/12/02 02:47:56;;;;;;;6.63;1.45;;;2.80;99.90;;;;;;5028426;28;20394;-78
2021/12/02 02:50:22;;;;;;;2.03;0.52;;;2.80;99.90;;;;;;5020291;28;20025;-78
2021/12/02 02:52:57;;;;;;;4.95;0.60;;;2.80;99.90;;;;;;5016561;28;20029;-78
2021/12/02 02:55:24;;;;;;;3.53;0.55;;;2.80;99.90;;;;;;5023134;28;20025;-77
2021/12/02 02:58:02;;;;;;;2.67;0.80;;;2.80;99.90;;;;;;5031672;28;20089;-77
2021/12/02 03:00:36;;;;;;;2.15;0.80;;;2.80;99.90;;;;;;5004084;28;20037;-78
2021/12/02 03:03:23;;;;;;;5.82;0.70;;;2.80;99.90;;;;;;5009211;28;20025;-78
2021/12/02 03:08:46;;;;;;;3.97;0.75;;;2.80;99.90;;;;;;5019018;28;20059;-78
2021/12/02 03:11:13;;;;;;;6.30;0.98;;;2.80;99.90;;;;;;5025260;28;20590;-77
2021/12/02 03:13:48;;;;;;;1.70;0.70;;;2.80;99.90;;;;;;5024951;28;20033;-78
2021/12/02 03:18:58;;;;;;;5.30;0.98;;;2.80;99.90;;;;;;5030567;28;20048;-77
2021/12/02 03:21:24;;;;;;;1.25;0.50;;;2.70;99.90;;;;;;5025416;28;20116;-78
2021/12/02 03:23:55;;;;;;;4.28;0.93;;;2.70;99.90;;;;;;5026519;28;20030;-78
2021/12/02 03:26:21;;;;;;;3.65;0.70;;;2.60;99.90;;;;;;5008424;28;20049;-77
2021/12/02 03:28:49;;;;;;;4.32;0.57;;;2.70;99.90;;;;;;5037289;28;20037;-76
2021/12/02 03:31:16;;;;;;;3.42;0.60;;;2.60;99.90;;;;;;5036764;28;20083;-77
2021/12/02 03:33:42;;;;;;;3.95;1.15;;;2.60;99.90;;;;;;5037772;28;20022;-77
2021/12/02 03:36:09;;;;;;;2.03;0.60;;;2.50;99.90;;;;;;5037966;28;20589;-74
2021/12/02 03:38:35;;;;;;;5.15;1.27;;;2.50;99.90;;;;;;5012897;28;20105;-78
2021/12/02 03:41:00;;;;;;;3.75;0.80;;;2.50;99.90;;;;;;5025667;28;20060;-78
2021/12/02 03:43:32;;;;;;;8.32;1.50;;;2.50;99.90;;;;;;5020356;28;20029;-77
2021/12/02 03:45:58;;;;;;;3.70;0.68;;;2.50;99.90;;;;;;5026855;28;20064;-76
2021/12/02 03:48:24;;;;;;;4.15;0.77;;;2.50;99.90;;;;;;5017386;28;20025;-78
2021/12/02 03:50:49;;;;;;;3.40;1.02;;;2.60;99.90;;;;;;5024565;28;20100;-78
2021/12/02 03:53:15;;;;;;;6.38;0.88;;;2.60;99.90;;;;;;5026321;28;20072;-77
2021/12/02 03:55:40;;;;;;;3.42;1.02;;;2.50;99.90;;;;;;5025169;28;20030;-78
2021/12/02 03:58:06;;;;;;;3.30;0.88;;;2.50;99.90;;;;;;5023665;28;20041;-78
2021/12/02 04:00:32;;;;;;;4.60;0.80;;;2.40;99.90;;;;;;5023391;28;20048;-77
2021/12/02 04:02:58;;;;;;;3.63;0.73;;;2.40;99.90;;;;;;5007939;28;20060;-78
2021/12/02 04:05:23;;;;;;;5.65;0.70;;;2.40;99.90;;;;;;5027520;28;21806;-77
2021/12/02 04:07:50;;;;;;;2.95;0.60;;;2.40;99.90;;;;;;5026694;28;20034;-77
2021/12/02 04:10:15;;;;;;;6.00;0.80;;;2.30;99.90;;;;;;5010451;28;20017;-77
2021/12/02 04:13:02;;;;;;;3.92;1.00;;;2.30;99.90;;;;;;5030699;28;20033;-78
2021/12/02 04:15:31;;;;;;;4.97;0.90;;;2.20;99.90;;;;;;5027945;28;20056;-78
2021/12/02 04:17:57;;;;;;;5.63;0.95;;;2.10;99.90;;;;;;5027567;28;20053;-77
2021/12/02 04:20:24;;;;;;;3.92;0.75;;;2.10;99.90;;;;;;5010731;28;20037;-78
2021/12/02 04:22:56;;;;;;;5.45;1.10;;;2.10;99.90;;;;;;5026039;28;20072;-76
2021/12/02 04:25:22;;;;;;;8.80;1.38;;;2.10;99.90;;;;;;5023493;28;20025;-76
2021/12/02 04:27:49;;;;;;;5.25;0.80;;;2.10;99.90;;;;;;5026439;28;20030;-75
2021/12/02 04:30:23;;;;;;;4.07;0.75;;;2.10;99.90;;;;;;5027036;28;20025;-76
2021/12/02 04:32:49;;;;;;;10.25;1.50;;;2.10;99.90;;;;;;5017399;28;20483;-75
2021/12/02 04:35:14;;;;;;;5.72;0.98;;;2.10;99.90;;;;;;5024841;28;20041;-76
2021/12/02 04:37:43;;;;;;;6.88;0.70;;;2.10;99.90;;;;;;5022545;28;20025;-76
2021/12/02 04:40:11;;;;;;;4.38;1.05;;;2.10;99.90;;;;;;5036543;28;20050;-76
2021/12/02 04:42:38;;;;;;;3.70;0.90;;;2.10;99.90;;;;;;5029887;28;20026;-76
2021/12/02 04:45:04;;;;;;;6.93;1.42;;;2.10;99.90;;;;;;5004019;28;20022;-79
2021/12/02 04:47:30;;;;;;;5.35;0.80;;;2.10;99.90;;;;;;5022848;28;20033;-76
2021/12/02 04:49:56;;;;;;;3.78;1.73;;;2.10;99.90;;;;;;5015992;28;20076;-75
2021/12/02 04:52:22;;;;;;;6.05;0.68;;;2.10;99.90;;;;;;5016783;28;20029;-76
2021/12/02 04:54:47;;;;;;;3.53;0.63;;;2.10;99.90;;;;;;5024702;28;20026;-76
2021/12/02 04:57:13;;;;;;;4.63;0.75;;;2.10;99.90;;;;;;5022969;28;20032;-76
2021/12/02 04:59:39;;;;;;;4.70;0.93;;;2.10;99.90;;;;;;5006700;28;20030;-76
2021/12/02 05:02:05;;;;;;;5.85;0.70;;;2.00;99.90;;;;;;5020049;28;20399;-75
2021/12/02 05:04:30;;;;;;;6.88;1.20;;;2.00;99.90;;;;;;5020344;28;20033;-76
2021/12/02 05:06:56;;;;;;;3.35;0.75;;;2.00;99.90;;;;;;5020913;28;20109;-76
2021/12/02 05:09:22;;;;;;;7.00;1.10;;;1.90;99.90;;;;;;5002256;28;20022;-77
2021/12/02 05:11:47;;;;;;;5.28;0.95;;;1.90;99.90;;;;;;5019768;28;20077;-76
2021/12/02 05:14:13;;;;;;;5.47;1.08;;;2.00;99.90;;;;;;5005171;28;20152;-77
2021/12/02 05:16:40;;;;;;;6.65;1.08;;;2.00;99.90;;;;;;5014742;28;20484;-76
2021/12/02 05:19:06;;;;;;;8.20;1.95;;;2.00;99.90;;;;;;5015704;28;20484;-76
2021/12/02 05:21:31;;;;;;;5.97;0.98;;;2.00;99.90;;;;;;5017436;28;20033;-76
2021/12/02 05:23:57;;;;;;;2.92;0.80;;;1.90;99.90;;;;;;5017886;28;20109;-74
2021/12/02 05:26:24;;;;;;;7.25;1.33;;;2.00;99.90;;;;;;5019937;28;20059;-76
2021/12/02 05:28:54;;;;;;;12.68;1.65;;;1.90;99.90;;;;;;4997194;28;20076;-76
2021/12/02 05:31:21;;;;;;;8.80;0.98;;;1.90;99.90;;;;;;5019240;28;20026;-75
2021/12/02 05:33:49;;;;;;;5.10;1.38;;;1.90;99.90;;;;;;4998539;28;20044;-76
2021/12/02 05:36:16;;;;;;;5.80;1.20;;;2.00;99.90;;;;;;5027695;28;20488;-76
2021/12/02 05:38:42;;;;;;;10.68;1.23;;;2.00;99.90;;;;;;5004563;28;20037;-76
2021/12/02 05:41:08;;;;;;;3.30;1.10;;;2.00;99.90;;;;;;4999203;28;20096;-76
2021/12/02 05:43:34;;;;;;;4.85;1.00;;;2.00;99.90;;;;;;5014583;28;20030;-76
2021/12/02 05:46:00;;;;;;;5.82;1.02;;;2.00;99.90;;;;;;5013638;28;20105;-75
2021/12/02 05:48:26;;;;;;;4.35;1.20;;;2.00;99.90;;;;;;5002280;28;20037;-75
2021/12/02 05:50:52;;;;;;;7.50;1.38;;;1.90;99.90;;;;;;5012162;28;20022;-76
2021/12/02 05:53:18;;;;;;;6.07;1.48;;;1.90;99.90;;;;;;4996883;28;20084;-75
2021/12/02 05:55:44;;;;;;;6.10;1.40;;;2.00;99.90;;;;;;5014397;28;20068;-74
2021/12/02 05:58:14;;;;;;;5.60;1.80;;;1.90;99.90;;;;;;5014645;28;20369;-75
2021/12/02 06:00:40;;;;;;;4.85;1.30;;;1.90;99.90;;;;;;5014127;28;20044;-76
2021/12/02 06:03:06;;;;;;;7.82;2.13;;;1.90;99.90;;;;;;5013775;28;20525;-76
2021/12/02 06:05:31;;;;;;;9.55;1.73;;;1.90;99.90;;;;;;5013625;28;20038;-76
2021/12/02 06:08:00;;;;;;;8.38;1.52;;;1.90;99.90;;;;;;5011437;28;20029;-76
2021/12/02 06:10:26;;;;;;;15.40;2.05;;;1.90;99.90;;;;;;5013533;28;20037;-77
2021/12/02 06:12:52;;;;;;;14.50;2.00;;;1.80;99.90;;;;;;5013518;28;20035;-76
2021/12/02 06:15:18;;;;;;;11.88;1.65;;;1.80;99.90;;;;;;5013553;28;20481;-75
2021/12/02 06:17:44;;;;;;;14.13;1.90;;;1.80;99.90;;;;;;5014564;28;20025;-76
2021/12/02 06:20:12;;;;;;;8.57;1.17;;;1.80;99.90;;;;;;5014716;28;20022;-75
2021/12/02 06:22:38;;;;;;;9.50;1.20;;;1.80;99.90;;;;;;5016227;28;20103;-76
2021/12/02 06:25:50;;;;;;;8.68;1.30;;;1.80;99.90;;;;;;5012756;28;20113;-75
2021/12/02 06:27:53;;;;;;;9.60;1.35;;;1.80;99.90;;;;;;5011716;28;20037;-76
2021/12/02 06:30:21;;;;;;;5.95;1.13;;;1.80;99.90;;;;;;5014470;28;20559;-76
2021/12/02 06:32:47;;;;;;;8.20;1.40;;;1.80;99.90;;;;;;5012166;28;20042;-76
2021/12/02 06:35:13;;;;;;;5.28;1.20;;;1.80;99.90;;;;;;5014107;28;20044;-76
2021/12/02 06:37:39;;;;;;;7.90;1.45;;;1.70;99.90;;;;;;5016707;28;20036;-76
2021/12/02 06:40:06;;;;;;;10.02;1.33;;;1.70;99.90;;;;;;4995309;28;20026;-76
2021/12/02 06:42:32;;;;;;;8.82;1.15;;;1.70;99.90;;;;;;5012289;28;20139;-76
2021/12/02 06:44:58;;;;;;;5.95;1.20;;;1.70;99.90;;;;;;5015720;28;20491;-76
2021/12/02 06:47:31;;;;;;;13.70;1.50;;;1.70;99.90;;;;;;5015333;28;20065;-75
2021/12/02 06:50:02;;;;;;;5.55;1.20;;;1.70;99.90;;;;;;5015906;28;20032;-76
2021/12/02 06:52:29;;;;;;;8.63;1.30;;;1.70;99.90;;;;;;5017697;28;20017;-77
2021/12/02 06:54:55;;;;;;;17.45;1.88;;;1.70;99.90;;;;;;5023171;28;20032;-76
2021/12/02 06:57:21;;;;;;;8.35;1.67;;;1.70;99.90;;;;;;5022283;28;20120;-76
2021/12/02 06:59:47;;;;;;;10.63;1.45;;;1.60;99.90;;;;;;5028070;28;20498;-76
2021/12/02 07:02:13;;;;;;;8.18;1.50;;;1.60;99.90;;;;;;5016390;28;20057;-75
2021/12/02 07:04:38;;;;;;;12.45;1.15;;;1.60;99.90;;;;;;5021753;28;20113;-75
2021/12/02 07:07:04;;;;;;;5.78;1.08;;;1.60;99.90;;;;;;5019356;28;20033;-76
2021/12/02 07:09:30;;;;;;;8.07;1.40;;;1.70;99.90;;;;;;5018134;28;20048;-75
2021/12/02 07:11:56;;;;;;;5.95;1.55;;;1.70;99.90;;;;;;5012252;28;20030;-76
2021/12/02 07:14:24;;;;;;;7.70;1.50;;;1.70;99.90;;;;;;5012512;28;20079;-75
2021/12/02 07:16:49;;;;;;;5.85;1.75;;;1.70;99.90;;;;;;4998079;28;20038;-76
2021/12/02 07:19:15;;;;;;;10.95;1.90;;;1.70;99.90;;;;;;5019135;28;20136;-76
2021/12/02 07:21:42;;;;;;;8.23;1.60;;;1.70;99.90;;;;;;5017099;28;20105;-76
2021/12/02 07:24:11;;;;;;;8.90;1.70;;;1.70;99.90;;;;;;5013593;28;20502;-76
2021/12/02 07:26:41;;;;;;;6.15;1.55;;;1.70;99.90;;;;;;4999522;28;20480;-77
2021/12/02 07:29:09;;;;;;;11.30;1.77;;;1.70;99.90;;;;;;5008322;28;20026;-75
2021/12/02 07:31:35;;;;;;;16.40;1.85;;;1.70;99.90;;;;;;5015658;28;20076;-76
2021/12/02 07:34:02;;;;;;;8.68;1.73;;;1.70;99.90;;;;;;5014680;28;20022;-76
2021/12/02 07:36:30;;;;;;;6.70;1.27;;;1.70;99.90;;;;;;5017889;28;20029;-76
2021/12/02 07:38:56;;;;;;;7.43;1.63;;;1.70;99.90;;;;;;5016762;28;20098;-76
2021/12/02 07:41:22;;;;;;;6.57;1.40;;;1.80;99.90;;;;;;5016098;28;20018;-76
2021/12/02 07:43:48;;;;;;;5.65;1.50;;;1.80;99.90;;;;;;4997624;28;20033;-74
2021/12/02 07:46:14;;;;;;;10.90;1.80;;;1.80;99.90;;;;;;5015865;28;20025;-76
2021/12/02 07:48:40;;;;;;;8.00;1.58;;;1.80;99.90;;;;;;5005201;28;20086;-76
2021/12/02 07:51:11;;;;;;;5.90;1.65;;;1.80;99.90;;;;;;5006260;28;20072;-76
2021/12/02 07:53:42;;;;;;;14.85;3.55;;;1.80;99.90;;;;;;5031293;28;20028;-76
2021/12/02 07:56:11;;;;;;;8.73;1.55;;;1.80;99.90;;;;;;5023759;28;20112;-76
2021/12/02 07:58:40;;;;;;;9.05;2.85;;;2.00;99.90;;;;;;5019764;28;20025;-76
2021/12/02 08:01:07;;;;;;;7.47;1.45;;;2.00;99.90;;;;;;5024629;28;20033;-76
2021/12/02 08:03:33;;;;;;;7.80;1.50;;;1.90;99.90;;;;;;5019088;28;20056;-77
2021/12/02 08:05:59;;;;;;;4.72;1.30;;;1.80;99.90;;;;;;5003500;28;20030;-76
2021/12/02 08:08:24;;;;;;;5.85;1.85;;;1.90;99.90;;;;;;5019562;28;20404;-76
2021/12/02 08:10:51;;;;;;;7.95;1.70;;;1.80;99.90;;;;;;5017604;28;20029;-76
2021/12/02 08:13:16;;;;;;;6.72;1.27;;;1.90;99.90;;;;;;5017117;28;20030;-76
2021/12/02 08:15:42;;;;;;;3.55;1.30;;;1.80;99.90;;;;;;5022977;28;20041;-76
2021/12/02 08:18:09;;;;;;;11.68;1.50;;;1.90;99.90;;;;;;5004055;28;20065;-76
2021/12/02 08:20:36;;;;;;;8.55;1.73;;;1.90;99.90;;;;;;5020997;28;20033;-75
2021/12/02 08:23:02;;;;;;;4.80;1.33;;;1.90;99.90;;;;;;4999794;28;20051;-76
2021/12/02 08:25:30;;;;;;;3.78;1.35;;;1.90;99.90;;;;;;5027197;28;20088;-76
2021/12/02 08:27:59;;;;;;;11.18;3.05;;;1.90;99.90;;;;;;5019802;28;20369;-76
2021/12/02 08:30:27;;;;;;;4.72;1.50;;;1.90;99.90;;;;;;5021170;28;20033;-76
2021/12/02 08:32:54;;;;;;;8.00;1.60;;;1.90;99.90;;;;;;5009003;28;20030;-76
2021/12/02 08:35:21;;;;;;;6.05;1.52;;;1.90;99.90;;;;;;5021527;28;20034;-77
2021/12/02 08:37:49;;;;;;;6.28;1.63;;;1.80;99.90;;;;;;5020062;28;20096;-77
2021/12/02 08:40:19;;;;;;;6.80;1.67;;;1.90;99.90;;;;;;5024742;28;20037;-76
2021/12/02 08:42:46;;;;;;;8.10;1.08;;;1.80;99.90;;;;;;5026637;28;20026;-76
2021/12/02 08:45:12;;;;;;;7.20;1.63;;;1.90;99.90;;;;;;5024337;28;20053;-76
2021/12/02 08:47:44;;;;;;;7.75;1.60;;;1.90;99.90;;;;;;5002840;28;20034;-76
2021/12/02 08:50:19;;;;;;;6.07;1.40;;;1.90;99.90;;;;;;5016883;28;20082;-76
2021/12/02 08:52:47;;;;;;;3.92;1.33;;;2.00;99.90;;;;;;5024019;28;20026;-75
2021/12/02 08:55:14;;;;;;;7.65;1.27;;;2.00;99.90;;;;;;5017146;28;20026;-76
2021/12/02 08:57:40;;;;;;;7.80;1.40;;;1.90;99.90;;;;;;5001493;28;20513;-75
2021/12/02 09:00:09;;;;;;;12.00;1.95;;;2.00;99.90;;;;;;5006297;28;20108;-75
2021/12/02 09:02:34;;;;;;;6.72;1.63;;;2.00;99.90;;;;;;5024646;28;20041;-75
2021/12/02 09:05:01;;;;;;;10.32;2.60;;;2.00;99.90;;;;;;5018757;28;20113;-74
2021/12/02 09:07:27;;;;;;;11.00;2.10;;;2.00;99.90;;;;;;5016615;28;20025;-74
2021/12/02 09:09:53;;;;;;;14.32;3.00;;;1.90;99.90;;;;;;5020702;28;20130;-75
2021/12/02 09:12:19;;;;;;;3.30;1.60;;;1.90;99.90;;;;;;5022293;28;20026;-76
2021/12/02 09:14:45;;;;;;;7.53;1.27;;;2.00;99.90;;;;;;5022087;28;20101;-75
2021/12/02 09:17:11;;;;;;;9.05;1.42;;;2.00;99.90;;;;;;5038139;28;20034;-74
2021/12/02 09:19:36;;;;;;;10.35;2.35;;;2.00;99.90;;;;;;5016927;28;20042;-75
2021/12/02 09:22:02;;;;;;;8.68;1.55;;;2.00;99.90;;;;;;5019182;28;20451;-76
2021/12/02 09:24:28;;;;;;;9.07;1.30;;;2.00;99.90;;;;;;5003629;28;20653;-76
2021/12/02 09:26:55;;;;;;;6.85;1.50;;;2.00;99.90;;;;;;5015921;28;20026;-75
2021/12/02 09:29:22;;;;;;;5.60;1.55;;;2.10;99.90;;;;;;5017766;28;20038;-75
2021/12/02 09:31:50;;;;;;;5.07;1.42;;;2.10;99.90;;;;;;5020771;28;20022;-75
2021/12/02 09:34:16;;;;;;;3.85;1.10;;;2.10;99.90;;;;;;4996403;28;20033;-75
2021/12/02 09:36:43;;;;;;;4.60;2.28;;;2.10;99.90;;;;;;5015779;28;20029;-75
2021/12/02 09:39:10;;;;;;;7.28;1.42;;;2.10;99.90;;;;;;5012688;28;20026;-76
2021/12/02 09:41:37;;;;;;;8.55;1.55;;;2.10;99.90;;;;;;5021158;28;20061;-75
2021/12/02 09:44:04;;;;;;;7.07;1.23;;;2.10;99.90;;;;;;5019418;28;20033;-76
2021/12/02 09:46:30;;;;;;;8.00;1.17;;;2.10;99.90;;;;;;5004095;28;20026;-76
2021/12/02 09:48:57;;;;;;;9.70;1.65;;;2.10;99.90;;;;;;5023536;28;20646;-76
2021/12/02 09:51:30;;;;;;;8.23;1.30;;;2.10;99.90;;;;;;4986344;28;20041;-75
2021/12/02 09:54:01;;;;;;;3.35;1.08;;;2.10;99.90;;;;;;5023742;28;20509;-75
2021/12/02 09:56:32;;;;;;;8.57;1.50;;;2.20;99.90;;;;;;5028896;28;20476;-76
2021/12/02 09:59:07;;;;;;;6.30;1.33;;;2.20;99.90;;;;;;5019205;28;20053;-75
2021/12/02 10:01:51;;;;;;;10.52;1.70;;;2.20;99.90;;;;;;5020385;28;20087;-76
2021/12/02 10:04:17;;;;;;;10.18;2.58;;;2.20;99.90;;;;;;5020609;28;20048;-75
2021/12/02 10:06:44;;;;;;;5.50;1.42;;;2.20;99.90;;;;;;5016755;28;20041;-75
2021/12/02 10:09:13;;;;;;;9.57;1.77;;;2.20;99.90;;;;;;5018958;28;20507;-75
2021/12/02 10:12:00;;;;;;;8.85;1.25;;;2.10;99.90;;;;;;5018365;28;20118;-74
2021/12/02 10:14:30;;;;;;;5.32;1.23;;;2.20;99.90;;;;;;5021173;28;20025;-75
2021/12/02 10:17:12;;;;;;;8.00;1.67;;;2.20;99.90;;;;;;5025201;28;20032;-75
2021/12/02 10:20:30;;;;;;;6.80;1.60;;;2.40;99.90;;;;;;5019394;28;20276;-75
2021/12/02 10:23:14;;;;;;;5.95;1.30;;;2.40;99.90;;;;;;5015534;28;20022;-75
2021/12/02 10:25:46;;;;;;;5.72;1.48;;;2.40;99.90;;;;;;5018085;28;20492;-75
2021/12/02 10:28:14;;;;;;;10.32;1.30;;;2.40;99.90;;;;;;5017725;28;20053;-76
2021/12/02 10:30:48;;;;;;;3.78;1.30;;;2.50;99.90;;;;;;5027982;28;20045;-76
2021/12/02 10:33:27;;;;;;;2.90;1.38;;;2.50;99.90;;;;;;5018045;28;20087;-75
2021/12/02 10:35:53;;;;;;;5.55;1.10;;;2.40;99.90;;;;;;4984690;28;20092;-75
2021/12/02 10:38:42;;;;;;;5.32;1.65;;;2.50;99.90;;;;;;5019869;28;20484;-75
2021/12/02 10:41:24;;;;;;;3.28;0.85;;;2.50;99.90;;;;;;5017069;28;20029;-75
2021/12/02 10:44:15;;;;;;;10.55;1.90;;;2.40;99.90;;;;;;5001251;28;20037;-74
2021/12/02 10:47:00;;;;;;;6.10;1.42;;;2.40;99.90;;;;;;5019633;28;20037;-74
2021/12/02 10:49:27;;;;;;;6.20;1.48;;;2.40;99.90;;;;;;5020510;28;20025;-72
2021/12/02 10:51:55;;;;;;;5.53;1.35;;;2.40;99.90;;;;;;5021092;28;20341;-75
2021/12/02 10:54:30;;;;;;;9.63;1.38;;;2.50;99.90;;;;;;5027809;28;20110;-75
2021/12/02 10:56:59;;;;;;;5.32;1.30;;;2.50;99.90;;;;;;5019572;28;20034;-76
2021/12/02 10:59:31;;;;;;;7.50;1.75;;;2.50;99.90;;;;;;5020115;28;20037;-76
2021/12/02 11:02:22;;;;;;;9.23;1.63;;;2.50;99.90;;;;;;5018525;28;20036;-75
2021/12/02 11:05:05;;;;;;;7.85;1.27;;;2.50;99.90;;;;;;5020043;28;20160;-76
2021/12/02 11:07:33;;;;;;;8.20;2.53;;;2.60;99.90;;;;;;5020717;28;20033;-76
2021/12/02 11:10:05;;;;;;;5.60;1.30;;;2.60;99.90;;;;;;5016226;28;20144;-75
2021/12/02 11:12:34;;;;;;;5.28;1.30;;;2.70;99.90;;;;;;5000795;28;20030;-75
2021/12/02 11:15:16;;;;;;;10.25;1.30;;;2.70;99.90;;;;;;5006313;28;20026;-76
2021/12/02 11:17:43;;;;;;;3.15;1.10;;;2.70;99.90;;;;;;5017882;28;20038;-75
2021/12/02 11:20:15;;;;;;;8.48;1.83;;;2.80;99.90;;;;;;5014768;28;20156;-75
2021/12/02 11:22:41;;;;;;;7.20;2.00;;;2.90;99.90;;;;;;5027690;28;20036;-76
2021/12/02 11:25:10;;;;;;;6.00;1.20;;;3.00;99.90;;;;;;5013097;28;20026;-77
2021/12/02 11:27:42;;;;;;;9.52;1.88;;;3.10;99.90;;;;;;5024050;28;20388;-78
2021/12/02 11:30:13;;;;;;;6.78;1.92;;;3.20;99.90;;;;;;5024401;28;20091;-78
2021/12/02 11:32:42;;;;;;;6.82;1.67;;;3.30;99.90;;;;;;5022910;28;20025;-78
2021/12/02 11:35:15;;;;;;;8.73;2.20;;;3.30;99.90;;;;;;5036099;28;20026;-78
2021/12/02 11:37:47;;;;;;;5.03;1.15;;;3.30;99.90;;;;;;5027170;28;20546;-78
2021/12/02 11:40:19;;;;;;;4.63;1.35;;;3.30;99.90;;;;;;5020518;28;20080;-76
2021/12/02 11:42:47;;;;;;;5.63;1.33;;;3.30;99.90;;;;;;5017785;28;20037;-77
2021/12/02 11:45:16;;;;;;;4.65;1.13;;;3.40;99.90;;;;;;5019072;28;20033;-77
2021/12/02 11:47:42;;;;;;;4.50;1.27;;;3.40;99.90;;;;;;5018988;28;20380;-76
2021/12/02 11:50:10;;;;;;;5.55;1.40;;;3.50;99.90;;;;;;5020597;28;20029;-76
2021/12/02 11:52:37;;;;;;;5.35;1.27;;;3.50;99.90;;;;;;5019934;28;20014;-77
2021/12/02 11:55:10;;;;;;;5.30;1.77;;;3.50;99.90;;;;;;5024403;28;20029;-78
2021/12/02 11:57:37;;;;;;;5.72;1.63;;;3.50;99.90;;;;;;5022404;28;20033;-77
2021/12/02 12:00:10;;;;;;;9.40;3.67;;;3.40;99.90;;;;;;5018583;28;20030;-78
2021/12/02 12:02:37;;;;;;;7.80;1.80;;;3.50;99.90;;;;;;5012842;28;20515;-75
2021/12/02 12:05:06;;;;;;;4.75;1.52;;;3.40;99.90;;;;;;5017911;28;20029;-77
2021/12/02 12:07:47;;;;;;;7.72;1.00;;;3.30;99.90;;;;;;5017747;28;20026;-76
2021/12/02 12:10:25;;;;;;;7.22;1.52;;;3.30;99.90;;;;;;5017402;28;20057;-76
2021/12/02 12:12:53;;;;;;;6.50;1.30;;;3.20;99.90;;;;;;5016881;28;20496;-76
2021/12/02 12:15:38;;;;;;;5.45;1.38;;;3.10;99.90;;;;;;5018447;28;20119;-76
2021/12/02 12:18:06;;;;;;;2.80;1.00;;;3.10;99.90;;;;;;5018622;28;20029;-75
2021/12/02 12:20:54;;;;;;;5.03;0.98;;;3.00;99.90;;;;;;5015600;28;20029;-75
2021/12/02 12:23:35;;;;;;;5.63;1.33;;;3.00;99.90;;;;;;5015556;28;20022;-76
2021/12/02 12:26:19;;;;;;;;;;;2.90;99.90;;;;;;5017726;28;20519;-76
2021/12/02 12:29:03;;;;;;;6.47;1.05;;;2.90;99.90;;;;;;4984682;28;19924;-76
2021/12/02 12:32:09;;;;;;;2.88;1.38;;;2.80;99.90;;;;;;5019664;28;20036;-74
2021/12/02 12:34:52;;;;;;;3.92;0.85;;;2.80;99.90;;;;;;4978543;28;20037;-76
2021/12/02 12:40:17;;;;;;;6.05;1.30;;;2.60;99.90;;;;;;5018874;28;20034;-75
2021/12/02 12:42:52;;;;;;;4.45;1.10;;;2.70;99.90;;;;;;5020289;28;20210;-75
2021/12/02 12:45:25;;;;;;;4.95;1.25;;;2.70;99.90;;;;;;5022396;28;20100;-75
2021/12/02 12:47:54;;;;;;;5.15;1.20;;;2.70;99.90;;;;;;5020157;28;20034;-76
2021/12/02 12:50:34;;;;;;;7.10;1.38;;;2.70;99.90;;;;;;5019702;28;20069;-75
2021/12/02 12:53:03;;;;;;;175.23;65.55;;;2.80;99.90;;;;;;5018371;28;20026;-76
2021/12/02 12:55:39;;;;;;;109.60;51.92;;;2.80;99.90;;;;;;5018884;28;20037;-75
2021/12/02 12:58:11;;;;;;;287.92;122.55;;;2.90;99.90;;;;;;5004547;28;20080;-76
2021/12/02 13:00:44;;;;;;;108.30;48.95;;;2.90;99.90;;;;;;5001711;28;20064;-75
2021/12/02 13:03:26;;;;;;;11.00;5.47;;;2.90;99.90;;;;;;5017885;28;20069;-75
2021/12/02 13:06:10;;;;;;;9.13;2.00;;;3.10;99.90;;;;;;5018835;28;20563;-76
2021/12/02 13:08:49;;;;;;;5.43;1.23;;;3.10;99.90;;;;;;5014364;28;20076;-75
2021/12/02 13:11:25;;;;;;;6.15;1.05;;;3.00;99.90;;;;;;5003190;28;20080;-75
2021/12/02 13:13:53;;;;;;;4.53;1.33;;;3.00;99.90;;;;;;5019989;28;20049;-75
2021/12/02 13:16:20;;;;;;;3.53;1.10;;;3.00;99.90;;;;;;5020361;28;20034;-76
2021/12/02 13:18:47;;;;;;;6.65;1.10;;;3.00;99.90;;;;;;5019980;28;20022;-76
2021/12/02 13:21:28;;;;;;;5.15;2.00;;;2.90;99.90;;;;;;5019433;28;20040;-75
2021/12/02 13:24:10;;;;;;;2.60;1.20;;;2.90;99.90;;;;;;5020826;28;20030;-76